sensor_id;sensor_type;location;lat;lon;timestamp;temperature;humidity
63899;HTU21D;50070;-32.946;-60.652;2022-07-23T00:01:27;18.12;62.99
63899;HTU21D;50070;-32.946;-60.652;2022-07-23T00:03:54;17.98;63.69
63899;HTU21D;50070;-32.946;-60.652;2022-07-23T00:06:21;17.91;63.96
63899;HTU21D;50070;-32.946;-60.652;2022-07-23T00:08:50;17.92;64.21
63899;HTU21D;50070;-32.946;-60.652;2022-07-23T00:11:16;18.00;64.06
63899;HTU21D;50070;-32.946;-60.652;2022-07-23T00:13:42;18.05;64.25
63899;HTU21D;50070;-32.946;-60.652;2022-07-23T00:16:08;17.99;64.72
63899;HTU21D;50070;-32.946;-60.652;2022-07-23T00:18:35;18.02;64.95
63899;HTU21D;50070;-32.946;-60.652;2022-07-23T00:21:01;17.85;65.54
63899;HTU21D;50070;-32.946;-60.652;2022-07-23T00:23:27;17.85;65.59
63899;HTU21D;50070;-32.946;-60.652;2022-07-23T00:25:55;17.90;65.69
63899;HTU21D;50070;-32.946;-60.652;2022-07-23T00:28:22;17.93;65.53
63899;HTU21D;50070;-32.946;-60.652;2022-07-23T00:30:48;17.66;66.72
63899;HTU21D;50070;-32.946;-60.652;2022-07-23T00:33:14;17.88;65.95
63899;HTU21D;50070;-32.946;-60.652;2022-07-23T00:35:40;17.87;65.92
63899;HTU21D;50070;-32.946;-60.652;2022-07-23T00:38:10;17.95;65.71
63899;HTU21D;50070;-32.946;-60.652;2022-07-23T00:40:37;17.95;65.58
63899;HTU21D;50070;-32.946;-60.652;2022-07-23T00:43:03;17.79;66.25
63899;HTU21D;50070;-32.946;-60.652;2022-07-23T00:45:30;17.81;66.26
63899;HTU21D;50070;-32.946;-60.652;2022-07-23T00:47:56;17.87;66.23
63899;HTU21D;50070;-32.946;-60.652;2022-07-23T00:50:23;17.82;66.56
63899;HTU21D;50070;-32.946;-60.652;2022-07-23T00:52:49;17.82;66.62
63899;HTU21D;50070;-32.946;-60.652;2022-07-23T00:55:15;17.89;66.17
63899;HTU21D;50070;-32.946;-60.652;2022-07-23T00:57:42;17.74;66.78
63899;HTU21D;50070;-32.946;-60.652;2022-07-23T01:00:10;17.67;67.10
63899;HTU21D;50070;-32.946;-60.652;2022-07-23T01:02:36;17.67;67.27
63899;HTU21D;50070;-32.946;-60.652;2022-07-23T01:05:03;17.72;67.01
63899;HTU21D;50070;-32.946;-60.652;2022-07-23T01:07:29;17.56;67.51
63899;HTU21D;50070;-32.946;-60.652;2022-07-23T01:09:56;17.39;68.36
63899;HTU21D;50070;-32.946;-60.652;2022-07-23T01:12:22;17.50;67.79
63899;HTU21D;50070;-32.946;-60.652;2022-07-23T01:14:55;17.50;67.97
63899;HTU21D;50070;-32.946;-60.652;2022-07-23T01:17:21;17.49;68.20
63899;HTU21D;50070;-32.946;-60.652;2022-07-23T01:19:48;17.31;69.15
63899;HTU21D;50070;-32.946;-60.652;2022-07-23T01:22:14;17.35;69.28
63899;HTU21D;50070;-32.946;-60.652;2022-07-23T01:24:40;17.47;68.97
63899;HTU21D;50070;-32.946;-60.652;2022-07-23T01:27:06;17.36;69.41
63899;HTU21D;50070;-32.946;-60.652;2022-07-23T01:29:33;17.36;69.67
63899;HTU21D;50070;-32.946;-60.652;2022-07-23T01:31:59;17.34;69.84
63899;HTU21D;50070;-32.946;-60.652;2022-07-23T01:34:25;17.25;70.59
63899;HTU21D;50070;-32.946;-60.652;2022-07-23T01:36:51;17.41;70.31
63899;HTU21D;50070;-32.946;-60.652;2022-07-23T01:39:18;17.38;70.37
63899;HTU21D;50070;-32.946;-60.652;2022-07-23T01:41:44;17.20;71.21
63899;HTU21D;50070;-32.946;-60.652;2022-07-23T01:44:10;17.33;71.00
63899;HTU21D;50070;-32.946;-60.652;2022-07-23T01:46:37;17.26;71.56
63899;HTU21D;50070;-32.946;-60.652;2022-07-23T01:49:04;17.28;71.34
63899;HTU21D;50070;-32.946;-60.652;2022-07-23T01:51:30;17.23;71.52
63899;HTU21D;50070;-32.946;-60.652;2022-07-23T01:53:56;17.23;71.71
63899;HTU21D;50070;-32.946;-60.652;2022-07-23T01:56:22;17.11;72.45
63899;HTU21D;50070;-32.946;-60.652;2022-07-23T01:58:49;16.92;73.25
63899;HTU21D;50070;-32.946;-60.652;2022-07-23T02:01:15;17.05;72.67
63899;HTU21D;50070;-32.946;-60.652;2022-07-23T02:03:41;17.04;72.67
63899;HTU21D;50070;-32.946;-60.652;2022-07-23T02:06:08;16.90;73.32
63899;HTU21D;50070;-32.946;-60.652;2022-07-23T02:08:34;16.98;73.05
63899;HTU21D;50070;-32.946;-60.652;2022-07-23T02:11:00;16.95;73.27
63899;HTU21D;50070;-32.946;-60.652;2022-07-23T02:13:26;16.73;74.16
63899;HTU21D;50070;-32.946;-60.652;2022-07-23T02:15:54;16.95;73.33
63899;HTU21D;50070;-32.946;-60.652;2022-07-23T02:18:20;16.94;73.61
63899;HTU21D;50070;-32.946;-60.652;2022-07-23T02:20:47;16.88;74.15
63899;HTU21D;50070;-32.946;-60.652;2022-07-23T02:23:13;16.77;74.57
63899;HTU21D;50070;-32.946;-60.652;2022-07-23T02:25:39;16.93;74.15
63899;HTU21D;50070;-32.946;-60.652;2022-07-23T02:28:05;16.90;74.42
63899;HTU21D;50070;-32.946;-60.652;2022-07-23T02:30:32;16.76;75.11
63899;HTU21D;50070;-32.946;-60.652;2022-07-23T02:32:58;16.90;74.52
63899;HTU21D;50070;-32.946;-60.652;2022-07-23T02:35:24;16.85;74.77
63899;HTU21D;50070;-32.946;-60.652;2022-07-23T02:37:50;16.75;75.38
63899;HTU21D;50070;-32.946;-60.652;2022-07-23T02:40:17;16.79;75.36
63899;HTU21D;50070;-32.946;-60.652;2022-07-23T02:42:44;16.59;76.47
63899;HTU21D;50070;-32.946;-60.652;2022-07-23T02:45:10;16.71;76.05
63899;HTU21D;50070;-32.946;-60.652;2022-07-23T02:47:36;16.71;75.99
63899;HTU21D;50070;-32.946;-60.652;2022-07-23T02:50:02;16.60;76.62
63899;HTU21D;50070;-32.946;-60.652;2022-07-23T02:52:30;16.63;76.50
63899;HTU21D;50070;-32.946;-60.652;2022-07-23T02:54:56;16.64;76.62
63899;HTU21D;50070;-32.946;-60.652;2022-07-23T02:57:23;16.52;77.34
63899;HTU21D;50070;-32.946;-60.652;2022-07-23T02:59:49;16.67;76.63
63899;HTU21D;50070;-32.946;-60.652;2022-07-23T03:02:15;16.60;76.88
63899;HTU21D;50070;-32.946;-60.652;2022-07-23T03:04:41;16.57;77.31
63899;HTU21D;50070;-32.946;-60.652;2022-07-23T03:07:07;16.57;77.39
63899;HTU21D;50070;-32.946;-60.652;2022-07-23T03:09:34;16.74;76.68
63899;HTU21D;50070;-32.946;-60.652;2022-07-23T03:12:00;16.67;76.79
63899;HTU21D;50070;-32.946;-60.652;2022-07-23T03:14:26;16.71;76.76
63899;HTU21D;50070;-32.946;-60.652;2022-07-23T03:16:53;16.61;77.47
63899;HTU21D;50070;-32.946;-60.652;2022-07-23T03:19:20;16.54;77.76
63899;HTU21D;50070;-32.946;-60.652;2022-07-23T03:21:46;16.56;77.60
63899;HTU21D;50070;-32.946;-60.652;2022-07-23T03:24:12;16.59;77.36
63899;HTU21D;50070;-32.946;-60.652;2022-07-23T03:26:38;16.57;77.39
63899;HTU21D;50070;-32.946;-60.652;2022-07-23T03:29:05;16.71;76.82
63899;HTU21D;50070;-32.946;-60.652;2022-07-23T03:31:31;16.72;76.74
63899;HTU21D;50070;-32.946;-60.652;2022-07-23T03:33:57;16.52;77.42
63899;HTU21D;50070;-32.946;-60.652;2022-07-23T03:36:24;16.55;77.36
63899;HTU21D;50070;-32.946;-60.652;2022-07-23T03:38:50;16.51;77.18
63899;HTU21D;50070;-32.946;-60.652;2022-07-23T03:41:17;16.45;77.56
63899;HTU21D;50070;-32.946;-60.652;2022-07-23T03:43:43;16.54;76.99
63899;HTU21D;50070;-32.946;-60.652;2022-07-23T03:46:09;16.51;77.04
63899;HTU21D;50070;-32.946;-60.652;2022-07-23T03:48:35;16.59;76.44
63899;HTU21D;50070;-32.946;-60.652;2022-07-23T03:51:01;16.55;76.78
63899;HTU21D;50070;-32.946;-60.652;2022-07-23T03:53:28;16.51;77.02
63899;HTU21D;50070;-32.946;-60.652;2022-07-23T03:55:54;16.34;77.72
63899;HTU21D;50070;-32.946;-60.652;2022-07-23T03:58:20;16.33;77.84
63899;HTU21D;50070;-32.946;-60.652;2022-07-23T04:00:47;16.48;77.11
63899;HTU21D;50070;-32.946;-60.652;2022-07-23T04:03:13;16.35;77.60
63899;HTU21D;50070;-32.946;-60.652;2022-07-23T04:05:39;16.24;78.20
63899;HTU21D;50070;-32.946;-60.652;2022-07-23T04:08:05;16.10;78.62
63899;HTU21D;50070;-32.946;-60.652;2022-07-23T04:10:31;15.90;78.78
63899;HTU21D;50070;-32.946;-60.652;2022-07-23T04:12:57;15.92;78.48
63899;HTU21D;50070;-32.946;-60.652;2022-07-23T04:15:24;15.77;79.11
63899;HTU21D;50070;-32.946;-60.652;2022-07-23T04:17:50;15.69;79.28
63899;HTU21D;50070;-32.946;-60.652;2022-07-23T04:20:16;15.61;79.53
63899;HTU21D;50070;-32.946;-60.652;2022-07-23T04:22:42;15.71;79.01
63899;HTU21D;50070;-32.946;-60.652;2022-07-23T04:25:08;15.81;79.06
63899;HTU21D;50070;-32.946;-60.652;2022-07-23T04:27:35;15.76;79.18
63899;HTU21D;50070;-32.946;-60.652;2022-07-23T04:30:01;15.81;79.11
63899;HTU21D;50070;-32.946;-60.652;2022-07-23T04:32:27;15.83;79.17
63899;HTU21D;50070;-32.946;-60.652;2022-07-23T04:34:53;15.88;79.02
63899;HTU21D;50070;-32.946;-60.652;2022-07-23T04:37:20;15.96;78.87
63899;HTU21D;50070;-32.946;-60.652;2022-07-23T04:39:46;15.89;79.33
63899;HTU21D;50070;-32.946;-60.652;2022-07-23T04:42:12;15.83;79.80
63899;HTU21D;50070;-32.946;-60.652;2022-07-23T04:44:38;15.59;80.39
63899;HTU21D;50070;-32.946;-60.652;2022-07-23T04:47:04;15.51;80.73
63899;HTU21D;50070;-32.946;-60.652;2022-07-23T04:49:30;15.42;81.28
63899;HTU21D;50070;-32.946;-60.652;2022-07-23T04:51:57;15.66;80.15
63899;HTU21D;50070;-32.946;-60.652;2022-07-23T04:54:23;15.74;79.85
63899;HTU21D;50070;-32.946;-60.652;2022-07-23T04:56:49;15.70;80.06
63899;HTU21D;50070;-32.946;-60.652;2022-07-23T04:59:15;15.52;80.75
63899;HTU21D;50070;-32.946;-60.652;2022-07-23T05:01:41;15.59;80.68
63899;HTU21D;50070;-32.946;-60.652;2022-07-23T05:04:08;15.49;81.40
63899;HTU21D;50070;-32.946;-60.652;2022-07-23T05:06:34;15.59;80.97
63899;HTU21D;50070;-32.946;-60.652;2022-07-23T05:09:00;15.52;81.39
63899;HTU21D;50070;-32.946;-60.652;2022-07-23T05:11:26;15.77;80.31
63899;HTU21D;50070;-32.946;-60.652;2022-07-23T05:13:52;15.74;80.46
63899;HTU21D;50070;-32.946;-60.652;2022-07-23T05:16:19;15.82;80.30
63899;HTU21D;50070;-32.946;-60.652;2022-07-23T05:18:45;15.68;80.82
63899;HTU21D;50070;-32.946;-60.652;2022-07-23T05:21:11;15.62;81.33
63899;HTU21D;50070;-32.946;-60.652;2022-07-23T05:23:37;15.72;80.59
63899;HTU21D;50070;-32.946;-60.652;2022-07-23T05:26:03;15.59;81.32
63899;HTU21D;50070;-32.946;-60.652;2022-07-23T05:28:29;15.74;80.77
63899;HTU21D;50070;-32.946;-60.652;2022-07-23T05:30:56;15.74;80.82
63899;HTU21D;50070;-32.946;-60.652;2022-07-23T05:33:22;15.77;80.74
63899;HTU21D;50070;-32.946;-60.652;2022-07-23T05:35:48;15.87;80.44
63899;HTU21D;50070;-32.946;-60.652;2022-07-23T05:38:14;15.78;80.75
63899;HTU21D;50070;-32.946;-60.652;2022-07-23T05:40:40;15.76;81.09
63899;HTU21D;50070;-32.946;-60.652;2022-07-23T05:43:07;15.81;81.23
63899;HTU21D;50070;-32.946;-60.652;2022-07-23T05:45:33;15.76;81.43
63899;HTU21D;50070;-32.946;-60.652;2022-07-23T05:47:59;15.68;82.26
63899;HTU21D;50070;-32.946;-60.652;2022-07-23T05:50:25;15.88;81.50
63899;HTU21D;50070;-32.946;-60.652;2022-07-23T05:52:51;15.89;81.43
63899;HTU21D;50070;-32.946;-60.652;2022-07-23T05:55:18;15.87;81.76
63899;HTU21D;50070;-32.946;-60.652;2022-07-23T05:57:44;15.72;83.01
63899;HTU21D;50070;-32.946;-60.652;2022-07-23T06:00:10;15.73;83.03
63899;HTU21D;50070;-32.946;-60.652;2022-07-23T06:02:37;15.78;82.83
63899;HTU21D;50070;-32.946;-60.652;2022-07-23T06:05:03;15.57;84.20
63899;HTU21D;50070;-32.946;-60.652;2022-07-23T06:07:30;15.74;83.20
63899;HTU21D;50070;-32.946;-60.652;2022-07-23T06:09:56;15.65;83.99
63899;HTU21D;50070;-32.946;-60.652;2022-07-23T06:12:22;15.70;83.78
63899;HTU21D;50070;-32.946;-60.652;2022-07-23T06:14:49;15.59;84.05
63899;HTU21D;50070;-32.946;-60.652;2022-07-23T06:17:18;15.68;83.56
63899;HTU21D;50070;-32.946;-60.652;2022-07-23T06:19:44;15.61;84.05
63899;HTU21D;50070;-32.946;-60.652;2022-07-23T06:22:10;15.65;83.29
63899;HTU21D;50070;-32.946;-60.652;2022-07-23T06:24:37;15.61;83.74
63899;HTU21D;50070;-32.946;-60.652;2022-07-23T06:27:03;15.66;83.58
63899;HTU21D;50070;-32.946;-60.652;2022-07-23T06:29:29;15.37;84.91
63899;HTU21D;50070;-32.946;-60.652;2022-07-23T06:31:55;15.41;84.42
63899;HTU21D;50070;-32.946;-60.652;2022-07-23T06:34:22;15.34;85.03
63899;HTU21D;50070;-32.946;-60.652;2022-07-23T06:36:48;15.41;84.58
63899;HTU21D;50070;-32.946;-60.652;2022-07-23T06:39:14;15.30;85.38
63899;HTU21D;50070;-32.946;-60.652;2022-07-23T06:41:40;15.39;84.67
63899;HTU21D;50070;-32.946;-60.652;2022-07-23T06:44:07;14.96;87.44
63899;HTU21D;50070;-32.946;-60.652;2022-07-23T06:46:33;15.34;85.16
63899;HTU21D;50070;-32.946;-60.652;2022-07-23T06:48:59;15.18;86.07
63899;HTU21D;50070;-32.946;-60.652;2022-07-23T06:51:26;15.41;84.66
63899;HTU21D;50070;-32.946;-60.652;2022-07-23T06:53:52;15.32;84.82
63899;HTU21D;50070;-32.946;-60.652;2022-07-23T06:56:18;15.26;84.84
63899;HTU21D;50070;-32.946;-60.652;2022-07-23T06:58:44;15.36;84.56
63899;HTU21D;50070;-32.946;-60.652;2022-07-23T07:01:10;15.48;83.58
63899;HTU21D;50070;-32.946;-60.652;2022-07-23T07:03:37;15.36;84.48
63899;HTU21D;50070;-32.946;-60.652;2022-07-23T07:06:03;15.30;84.90
63899;HTU21D;50070;-32.946;-60.652;2022-07-23T07:08:29;15.31;84.48
63899;HTU21D;50070;-32.946;-60.652;2022-07-23T07:10:55;15.22;84.55
63899;HTU21D;50070;-32.946;-60.652;2022-07-23T07:13:22;15.37;84.31
63899;HTU21D;50070;-32.946;-60.652;2022-07-23T07:15:48;15.36;83.91
63899;HTU21D;50070;-32.946;-60.652;2022-07-23T07:18:14;15.42;83.58
63899;HTU21D;50070;-32.946;-60.652;2022-07-23T07:20:40;15.33;83.73
63899;HTU21D;50070;-32.946;-60.652;2022-07-23T07:23:06;15.38;83.65
63899;HTU21D;50070;-32.946;-60.652;2022-07-23T07:25:33;15.30;83.02
63899;HTU21D;50070;-32.946;-60.652;2022-07-23T07:27:59;15.37;83.47
63899;HTU21D;50070;-32.946;-60.652;2022-07-23T07:30:25;15.46;83.04
63899;HTU21D;50070;-32.946;-60.652;2022-07-23T07:32:51;15.25;83.88
63899;HTU21D;50070;-32.946;-60.652;2022-07-23T07:35:17;15.14;85.04
63899;HTU21D;50070;-32.946;-60.652;2022-07-23T07:37:44;15.30;84.18
63899;HTU21D;50070;-32.946;-60.652;2022-07-23T07:40:10;15.37;83.83
63899;HTU21D;50070;-32.946;-60.652;2022-07-23T07:42:46;15.12;84.97
63899;HTU21D;50070;-32.946;-60.652;2022-07-23T07:45:12;15.23;83.87
63899;HTU21D;50070;-32.946;-60.652;2022-07-23T07:47:38;15.12;84.64
63899;HTU21D;50070;-32.946;-60.652;2022-07-23T07:50:04;15.19;84.51
63899;HTU21D;50070;-32.946;-60.652;2022-07-23T07:52:31;15.19;84.64
63899;HTU21D;50070;-32.946;-60.652;2022-07-23T07:54:57;15.26;84.26
63899;HTU21D;50070;-32.946;-60.652;2022-07-23T07:57:23;15.31;84.01
63899;HTU21D;50070;-32.946;-60.652;2022-07-23T07:59:49;15.36;84.00
63899;HTU21D;50070;-32.946;-60.652;2022-07-23T08:02:15;15.30;84.11
63899;HTU21D;50070;-32.946;-60.652;2022-07-23T08:04:42;15.46;83.23
63899;HTU21D;50070;-32.946;-60.652;2022-07-23T08:07:08;15.42;83.55
63899;HTU21D;50070;-32.946;-60.652;2022-07-23T08:09:34;15.49;83.15
63899;HTU21D;50070;-32.946;-60.652;2022-07-23T08:12:00;15.57;82.94
63899;HTU21D;50070;-32.946;-60.652;2022-07-23T08:14:26;15.49;83.00
63899;HTU21D;50070;-32.946;-60.652;2022-07-23T08:16:53;15.48;83.35
63899;HTU21D;50070;-32.946;-60.652;2022-07-23T08:19:19;15.37;83.86
63899;HTU21D;50070;-32.946;-60.652;2022-07-23T08:21:45;15.46;83.59
63899;HTU21D;50070;-32.946;-60.652;2022-07-23T08:24:11;15.47;83.35
63899;HTU21D;50070;-32.946;-60.652;2022-07-23T08:26:37;15.43;83.87
63899;HTU21D;50070;-32.946;-60.652;2022-07-23T08:29:03;15.14;85.67
63899;HTU21D;50070;-32.946;-60.652;2022-07-23T08:31:30;15.24;85.41
63899;HTU21D;50070;-32.946;-60.652;2022-07-23T08:33:58;15.46;84.13
63899;HTU21D;50070;-32.946;-60.652;2022-07-23T08:36:25;15.49;84.26
63899;HTU21D;50070;-32.946;-60.652;2022-07-23T08:38:53;15.55;84.08
63899;HTU21D;50070;-32.946;-60.652;2022-07-23T08:41:20;15.52;84.07
63899;HTU21D;50070;-32.946;-60.652;2022-07-23T08:43:46;15.51;84.35
63899;HTU21D;50070;-32.946;-60.652;2022-07-23T08:46:13;15.42;84.13
63899;HTU21D;50070;-32.946;-60.652;2022-07-23T08:48:39;15.36;85.07
63899;HTU21D;50070;-32.946;-60.652;2022-07-23T08:51:06;15.52;84.07
63899;HTU21D;50070;-32.946;-60.652;2022-07-23T08:53:32;15.45;84.61
63899;HTU21D;50070;-32.946;-60.652;2022-07-23T08:56:02;15.43;84.97
63899;HTU21D;50070;-32.946;-60.652;2022-07-23T08:58:28;15.33;85.00
63899;HTU21D;50070;-32.946;-60.652;2022-07-23T09:00:55;15.46;84.54
63899;HTU21D;50070;-32.946;-60.652;2022-07-23T09:03:26;15.54;84.45
63899;HTU21D;50070;-32.946;-60.652;2022-07-23T09:05:53;15.53;84.41
63899;HTU21D;50070;-32.946;-60.652;2022-07-23T09:08:23;15.47;84.74
63899;HTU21D;50070;-32.946;-60.652;2022-07-23T09:10:56;15.56;84.52
63899;HTU21D;50070;-32.946;-60.652;2022-07-23T09:13:24;15.65;84.26
63899;HTU21D;50070;-32.946;-60.652;2022-07-23T09:15:51;15.33;86.22
63899;HTU21D;50070;-32.946;-60.652;2022-07-23T09:18:18;15.32;86.42
63899;HTU21D;50070;-32.946;-60.652;2022-07-23T09:20:44;15.40;86.00
63899;HTU21D;50070;-32.946;-60.652;2022-07-23T09:23:10;15.54;85.37
63899;HTU21D;50070;-32.946;-60.652;2022-07-23T09:25:37;15.18;87.13
63899;HTU21D;50070;-32.946;-60.652;2022-07-23T09:28:03;15.51;85.73
63899;HTU21D;50070;-32.946;-60.652;2022-07-23T09:30:30;15.57;85.59
63899;HTU21D;50070;-32.946;-60.652;2022-07-23T09:33:06;15.51;86.06
63899;HTU21D;50070;-32.946;-60.652;2022-07-23T09:38:11;15.53;86.41
63899;HTU21D;50070;-32.946;-60.652;2022-07-23T09:40:37;15.43;87.15
63899;HTU21D;50070;-32.946;-60.652;2022-07-23T09:43:03;15.58;86.54
63899;HTU21D;50070;-32.946;-60.652;2022-07-23T09:45:30;15.42;87.22
63899;HTU21D;50070;-32.946;-60.652;2022-07-23T09:48:12;15.54;87.03
63899;HTU21D;50070;-32.946;-60.652;2022-07-23T09:50:39;15.62;86.84
63899;HTU21D;50070;-32.946;-60.652;2022-07-23T09:53:05;15.75;86.15
63899;HTU21D;50070;-32.946;-60.652;2022-07-23T09:55:35;15.63;86.79
63899;HTU21D;50070;-32.946;-60.652;2022-07-23T09:58:07;15.74;86.45
63899;HTU21D;50070;-32.946;-60.652;2022-07-23T10:00:38;15.75;86.67
63899;HTU21D;50070;-32.946;-60.652;2022-07-23T10:03:05;15.91;86.20
63899;HTU21D;50070;-32.946;-60.652;2022-07-23T10:05:31;15.81;86.74
63899;HTU21D;50070;-32.946;-60.652;2022-07-23T10:08:01;15.95;86.25
63899;HTU21D;50070;-32.946;-60.652;2022-07-23T10:10:27;15.83;87.15
63899;HTU21D;50070;-32.946;-60.652;2022-07-23T10:12:55;15.85;87.41
63899;HTU21D;50070;-32.946;-60.652;2022-07-23T10:15:27;15.82;87.48
63899;HTU21D;50070;-32.946;-60.652;2022-07-23T10:17:53;15.75;88.19
63899;HTU21D;50070;-32.946;-60.652;2022-07-23T10:20:20;15.92;87.64
63899;HTU21D;50070;-32.946;-60.652;2022-07-23T10:22:48;15.77;88.83
63899;HTU21D;50070;-32.946;-60.652;2022-07-23T10:32:56;15.95;88.26
63899;HTU21D;50070;-32.946;-60.652;2022-07-23T10:35:37;15.96;88.04
63899;HTU21D;50070;-32.946;-60.652;2022-07-23T10:40:53;15.88;88.41
63899;HTU21D;50070;-32.946;-60.652;2022-07-23T10:43:20;15.91;88.02
63899;HTU21D;50070;-32.946;-60.652;2022-07-23T10:45:47;15.98;87.22
63899;HTU21D;50070;-32.946;-60.652;2022-07-23T10:50:42;15.95;87.45
63899;HTU21D;50070;-32.946;-60.652;2022-07-23T10:53:13;16.03;86.89
63899;HTU21D;50070;-32.946;-60.652;2022-07-23T10:55:42;16.12;86.28
63899;HTU21D;50070;-32.946;-60.652;2022-07-23T10:58:09;16.13;85.96
63899;HTU21D;50070;-32.946;-60.652;2022-07-23T11:00:36;16.16;85.99
63899;HTU21D;50070;-32.946;-60.652;2022-07-23T11:03:03;15.93;87.41
63899;HTU21D;50070;-32.946;-60.652;2022-07-23T11:05:43;16.06;87.23
63899;HTU21D;50070;-32.946;-60.652;2022-07-23T11:08:10;16.04;87.13
63899;HTU21D;50070;-32.946;-60.652;2022-07-23T11:10:42;16.10;87.14
63899;HTU21D;50070;-32.946;-60.652;2022-07-23T11:32:01;16.15;86.69
63899;HTU21D;50070;-32.946;-60.652;2022-07-23T11:34:40;16.11;86.76
63899;HTU21D;50070;-32.946;-60.652;2022-07-23T11:37:10;16.11;86.93
63899;HTU21D;50070;-32.946;-60.652;2022-07-23T11:39:37;16.05;87.12
63899;HTU21D;50070;-32.946;-60.652;2022-07-23T11:42:05;16.08;86.67
63899;HTU21D;50070;-32.946;-60.652;2022-07-23T11:44:33;16.06;87.28
63899;HTU21D;50070;-32.946;-60.652;2022-07-23T11:47:00;16.05;87.51
63899;HTU21D;50070;-32.946;-60.652;2022-07-23T11:49:27;16.10;87.28
63899;HTU21D;50070;-32.946;-60.652;2022-07-23T11:52:10;16.19;87.11
63899;HTU21D;50070;-32.946;-60.652;2022-07-23T11:54:37;16.13;87.54
63899;HTU21D;50070;-32.946;-60.652;2022-07-23T11:57:12;16.22;86.71
63899;HTU21D;50070;-32.946;-60.652;2022-07-23T11:59:38;16.12;87.26
63899;HTU21D;50070;-32.946;-60.652;2022-07-23T12:02:05;16.22;87.06
63899;HTU21D;50070;-32.946;-60.652;2022-07-23T12:07:05;16.25;86.95
63899;HTU21D;50070;-32.946;-60.652;2022-07-23T12:09:48;16.28;86.51
63899;HTU21D;50070;-32.946;-60.652;2022-07-23T12:12:14;16.26;86.85
63899;HTU21D;50070;-32.946;-60.652;2022-07-23T12:14:50;16.29;86.35
63899;HTU21D;50070;-32.946;-60.652;2022-07-23T12:17:17;16.37;86.02
63899;HTU21D;50070;-32.946;-60.652;2022-07-23T12:19:43;16.27;86.75
63899;HTU21D;50070;-32.946;-60.652;2022-07-23T12:22:10;16.29;86.11
63899;HTU21D;50070;-32.946;-60.652;2022-07-23T12:27:21;16.35;86.46
63899;HTU21D;50070;-32.946;-60.652;2022-07-23T12:29:48;16.46;86.06
63899;HTU21D;50070;-32.946;-60.652;2022-07-23T12:32:32;16.45;86.20
63899;HTU21D;50070;-32.946;-60.652;2022-07-23T12:35:05;16.26;87.44
63899;HTU21D;50070;-32.946;-60.652;2022-07-23T12:37:33;16.28;87.35
63899;HTU21D;50070;-32.946;-60.652;2022-07-23T12:43:08;16.34;87.16
63899;HTU21D;50070;-32.946;-60.652;2022-07-23T12:45:45;16.16;88.60
63899;HTU21D;50070;-32.946;-60.652;2022-07-23T12:48:18;16.31;88.01
63899;HTU21D;50070;-32.946;-60.652;2022-07-23T12:50:48;16.34;87.68
63899;HTU21D;50070;-32.946;-60.652;2022-07-23T12:53:16;16.30;88.39
63899;HTU21D;50070;-32.946;-60.652;2022-07-23T12:55:43;16.41;88.01
63899;HTU21D;50070;-32.946;-60.652;2022-07-23T12:58:17;16.51;87.49
63899;HTU21D;50070;-32.946;-60.652;2022-07-23T13:00:53;16.51;87.86
63899;HTU21D;50070;-32.946;-60.652;2022-07-23T13:03:29;16.46;88.62
63899;HTU21D;50070;-32.946;-60.652;2022-07-23T13:05:56;16.56;88.42
63899;HTU21D;50070;-32.946;-60.652;2022-07-23T13:08:23;16.71;88.06
63899;HTU21D;50070;-32.946;-60.652;2022-07-23T13:10:49;16.80;87.74
63899;HTU21D;50070;-32.946;-60.652;2022-07-23T13:13:17;16.72;88.15
63899;HTU21D;50070;-32.946;-60.652;2022-07-23T13:15:45;16.80;87.89
63899;HTU21D;50070;-32.946;-60.652;2022-07-23T13:18:11;16.86;87.84
63899;HTU21D;50070;-32.946;-60.652;2022-07-23T13:20:38;16.85;88.09
63899;HTU21D;50070;-32.946;-60.652;2022-07-23T13:23:07;16.90;88.12
63899;HTU21D;50070;-32.946;-60.652;2022-07-23T13:25:34;17.05;87.52
63899;HTU21D;50070;-32.946;-60.652;2022-07-23T13:28:00;17.04;87.74
63899;HTU21D;50070;-32.946;-60.652;2022-07-23T13:30:27;17.08;88.08
63899;HTU21D;50070;-32.946;-60.652;2022-07-23T13:32:53;17.13;88.12
63899;HTU21D;50070;-32.946;-60.652;2022-07-23T13:35:19;17.04;88.58
63899;HTU21D;50070;-32.946;-60.652;2022-07-23T13:37:48;16.99;89.15
63899;HTU21D;50070;-32.946;-60.652;2022-07-23T13:40:14;17.05;89.11
63899;HTU21D;50070;-32.946;-60.652;2022-07-23T13:42:40;16.89;90.06
63899;HTU21D;50070;-32.946;-60.652;2022-07-23T13:45:07;17.01;89.66
63899;HTU21D;50070;-32.946;-60.652;2022-07-23T13:47:33;17.08;89.56
63899;HTU21D;50070;-32.946;-60.652;2022-07-23T13:49:59;17.19;89.37
63899;HTU21D;50070;-32.946;-60.652;2022-07-23T13:52:25;17.01;90.36
63899;HTU21D;50070;-32.946;-60.652;2022-07-23T13:54:52;17.06;90.50
63899;HTU21D;50070;-32.946;-60.652;2022-07-23T13:57:18;17.18;90.00
63899;HTU21D;50070;-32.946;-60.652;2022-07-23T13:59:44;17.23;89.92
63899;HTU21D;50070;-32.946;-60.652;2022-07-23T14:02:10;17.36;89.69
63899;HTU21D;50070;-32.946;-60.652;2022-07-23T14:04:39;17.28;89.60
63899;HTU21D;50070;-32.946;-60.652;2022-07-23T14:07:05;17.31;89.38
63899;HTU21D;50070;-32.946;-60.652;2022-07-23T14:09:32;17.34;89.27
63899;HTU21D;50070;-32.946;-60.652;2022-07-23T14:11:59;17.30;89.38
63899;HTU21D;50070;-32.946;-60.652;2022-07-23T14:14:25;17.39;88.77
63899;HTU21D;50070;-32.946;-60.652;2022-07-23T14:16:51;17.31;89.68
63899;HTU21D;50070;-32.946;-60.652;2022-07-23T14:19:18;17.47;88.70
63899;HTU21D;50070;-32.946;-60.652;2022-07-23T14:21:44;17.52;88.58
63899;HTU21D;50070;-32.946;-60.652;2022-07-23T14:24:10;17.64;87.72
63899;HTU21D;50070;-32.946;-60.652;2022-07-23T14:26:36;17.53;88.30
63899;HTU21D;50070;-32.946;-60.652;2022-07-23T14:29:02;17.41;88.75
63899;HTU21D;50070;-32.946;-60.652;2022-07-23T14:31:29;17.45;88.85
63899;HTU21D;50070;-32.946;-60.652;2022-07-23T14:33:55;17.62;88.35
63899;HTU21D;50070;-32.946;-60.652;2022-07-23T14:36:21;17.55;88.54
63899;HTU21D;50070;-32.946;-60.652;2022-07-23T14:38:47;17.55;88.47
63899;HTU21D;50070;-32.946;-60.652;2022-07-23T14:41:13;17.63;88.22
63899;HTU21D;50070;-32.946;-60.652;2022-07-23T14:43:39;17.77;87.74
63899;HTU21D;50070;-32.946;-60.652;2022-07-23T14:46:07;17.49;88.55
63899;HTU21D;50070;-32.946;-60.652;2022-07-23T14:48:34;17.43;89.19
63899;HTU21D;50070;-32.946;-60.652;2022-07-23T14:51:00;17.48;89.13
63899;HTU21D;50070;-32.946;-60.652;2022-07-23T14:53:26;17.61;88.31
63899;HTU21D;50070;-32.946;-60.652;2022-07-23T14:55:53;17.49;89.03
63899;HTU21D;50070;-32.946;-60.652;2022-07-23T14:58:20;17.49;89.17
63899;HTU21D;50070;-32.946;-60.652;2022-07-23T15:00:46;17.62;88.85
63899;HTU21D;50070;-32.946;-60.652;2022-07-23T15:03:14;17.50;89.18
63899;HTU21D;50070;-32.946;-60.652;2022-07-23T15:05:41;17.52;89.28
63899;HTU21D;50070;-32.946;-60.652;2022-07-23T15:08:07;17.48;89.21
63899;HTU21D;50070;-32.946;-60.652;2022-07-23T15:10:34;17.46;89.70
63899;HTU21D;50070;-32.946;-60.652;2022-07-23T15:13:00;17.51;89.38
63899;HTU21D;50070;-32.946;-60.652;2022-07-23T15:15:27;17.61;89.07
63899;HTU21D;50070;-32.946;-60.652;2022-07-23T15:17:53;17.83;88.47